sensor_id;sensor_type;location;lat;lon;timestamp;pressure;altitude;pressure_sealevel;temperature;humidity
45864;BME280;31579;52.354;16.974;2023-04-04T00:00:17;71.1;;;-146.1;100.0
45864;BME280;31579;52.354;16.974;2023-04-04T00:01:20;66.0;;;-146.1;100.0
45864;BME280;31579;52.354;16.974;2023-04-04T00:02:23;59.2;;;-146.1;100.0
45864;BME280;31579;52.354;16.974;2023-04-04T00:03:26;56.6;;;-146.1;100.0
45864;BME280;31579;52.354;16.974;2023-04-04T00:04:30;66.8;;;-146.1;100.0
45864;BME280;31579;52.354;16.974;2023-04-04T00:05:33;54.4;;;-146.1;100.0
45864;BME280;31579;52.354;16.974;2023-04-04T00:06:36;57.1;;;-146.1;100.0
45864;BME280;31579;52.354;16.974;2023-04-04T00:07:39;57.5;;;-146.1;100.0
45864;BME280;31579;52.354;16.974;2023-04-04T00:08:42;59.9;;;-146.1;100.0
45864;BME280;31579;52.354;16.974;2023-04-04T00:09:45;59.5;;;-146.1;100.0
45864;BME280;31579;52.354;16.974;2023-04-04T00:10:48;58.6;;;-146.1;100.0
45864;BME280;31579;52.354;16.974;2023-04-04T00:11:52;63.7;;;-146.1;100.0
45864;BME280;31579;52.354;16.974;2023-04-04T00:12:55;63.0;;;-146.1;100.0
45864;BME280;31579;52.354;16.974;2023-04-04T00:13:58;68.6;;;-146.1;100.0
45864;BME280;31579;52.354;16.974;2023-04-04T00:15:16;101.4;;;-146.1;100.0
45864;BME280;31579;52.354;16.974;2023-04-04T00:16:19;91.7;;;-146.1;100.0
45864;BME280;31579;52.354;16.974;2023-04-04T00:17:22;95.7;;;-146.1;100.0
45864;BME280;31579;52.354;16.974;2023-04-04T00:18:25;100.7;;;-146.1;100.0
45864;BME280;31579;52.354;16.974;2023-04-04T00:19:28;103.9;;;-146.1;100.0
45864;BME280;31579;52.354;16.974;2023-04-04T00:20:31;109.8;;;-146.1;100.0
45864;BME280;31579;52.354;16.974;2023-04-04T00:21:34;114.8;;;-146.1;100.0
45864;BME280;31579;52.354;16.974;2023-04-04T00:22:37;114.9;;;-146.1;100.0
45864;BME280;31579;52.354;16.974;2023-04-04T00:23:40;114.9;;;-146.1;100.0
45864;BME280;31579;52.354;16.974;2023-04-04T00:24:44;126.6;;;-146.1;100.0
45864;BME280;31579;52.354;16.974;2023-04-04T00:25:49;111.1;;;-146.1;100.0
45864;BME280;31579;52.354;16.974;2023-04-04T00:26:50;106.5;;;-146.1;100.0
45864;BME280;31579;52.354;16.974;2023-04-04T00:27:54;103.7;;;-146.1;100.0
45864;BME280;31579;52.354;16.974;2023-04-04T00:28:57;103.4;;;-146.1;100.0
45864;BME280;31579;52.354;16.974;2023-04-04T00:30:01;114.6;;;-146.1;100.0
45864;BME280;31579;52.354;16.974;2023-04-04T00:31:04;101.2;;;-146.1;100.0
45864;BME280;31579;52.354;16.974;2023-04-04T00:32:07;99.5;;;-146.1;100.0
45864;BME280;31579;52.354;16.974;2023-04-04T00:33:10;99.3;;;-146.1;100.0
45864;BME280;31579;52.354;16.974;2023-04-04T00:34:14;109.9;;;-146.1;100.0
45864;BME280;31579;52.354;16.974;2023-04-04T00:35:17;97.0;;;-146.1;100.0
45864;BME280;31579;52.354;16.974;2023-04-04T00:36:20;94.8;;;-146.1;100.0
45864;BME280;31579;52.354;16.974;2023-04-04T00:37:23;94.2;;;-146.1;100.0
45864;BME280;31579;52.354;16.974;2023-04-04T00:38:26;90.7;;;-146.1;100.0
45864;BME280;31579;52.354;16.974;2023-04-04T00:39:29;85.2;;;-146.1;100.0
45864;BME280;31579;52.354;16.974;2023-04-04T00:40:39;81.1;;;-146.1;100.0
45864;BME280;31579;52.354;16.974;2023-04-04T00:41:35;77.7;;;-146.1;100.0
45864;BME280;31579;52.354;16.974;2023-04-04T00:42:38;75.5;;;-146.1;100.0
45864;BME280;31579;52.354;16.974;2023-04-04T00:43:42;71.6;;;-146.1;100.0
45864;BME280;31579;52.354;16.974;2023-04-04T00:44:45;64.0;;;-146.1;100.0
45864;BME280;31579;52.354;16.974;2023-04-04T00:45:50;56.6;;;-146.1;100.0
45864;BME280;31579;52.354;16.974;2023-04-04T00:46:51;51.7;;;-146.1;100.0
45864;BME280;31579;52.354;16.974;2023-04-04T00:47:54;47.5;;;-146.1;100.0
45864;BME280;31579;52.354;16.974;2023-04-04T00:49:03;66.4;;;-146.1;100.0
45864;BME280;31579;52.354;16.974;2023-04-04T00:50:07;44.8;;;-146.1;100.0
45864;BME280;31579;52.354;16.974;2023-04-04T00:51:09;38.8;;;-146.1;100.0
45864;BME280;31579;52.354;16.974;2023-04-04T00:52:12;33.6;;;-146.1;100.0
45864;BME280;31579;52.354;16.974;2023-04-04T00:53:15;31.0;;;-146.1;100.0
45864;BME280;31579;52.354;16.974;2023-04-04T00:54:19;30.4;;;-146.1;100.0
45864;BME280;31579;52.354;16.974;2023-04-04T00:55:21;30.3;;;-146.1;100.0
45864;BME280;31579;52.354;16.974;2023-04-04T00:56:24;29.4;;;-146.1;100.0
45864;BME280;31579;52.354;16.974;2023-04-04T00:57:27;31.3;;;-146.1;100.0
45864;BME280;31579;52.354;16.974;2023-04-04T00:58:30;34.4;;;-146.1;100.0
45864;BME280;31579;52.354;16.974;2023-04-04T00:59:33;35.5;;;-146.1;100.0
45864;BME280;31579;52.354;16.974;2023-04-04T01:00:36;36.6;;;-146.1;100.0
45864;BME280;31579;52.354;16.974;2023-04-04T01:01:39;35.0;;;-146.1;100.0
45864;BME280;31579;52.354;16.974;2023-04-04T01:02:43;35.9;;;-146.1;100.0
45864;BME280;31579;52.354;16.974;2023-04-04T01:03:46;36.6;;;-146.1;100.0
45864;BME280;31579;52.354;16.974;2023-04-04T01:04:50;36.8;;;-146.1;100.0
45864;BME280;31579;52.354;16.974;2023-04-04T01:05:53;39.0;;;-146.1;100.0
45864;BME280;31579;52.354;16.974;2023-04-04T01:06:55;41.7;;;-146.1;100.0
45864;BME280;31579;52.354;16.974;2023-04-04T01:07:59;43.0;;;-146.1;100.0
45864;BME280;31579;52.354;16.974;2023-04-04T01:09:01;42.4;;;-146.1;100.0
45864;BME280;31579;52.354;16.974;2023-04-04T01:10:06;56.9;;;-146.1;100.0
45864;BME280;31579;52.354;16.974;2023-04-04T01:11:09;48.4;;;-146.1;100.0
45864;BME280;31579;52.354;16.974;2023-04-04T01:12:13;57.4;;;-146.1;100.0
45864;BME280;31579;52.354;16.974;2023-04-04T01:13:16;48.7;;;-146.1;100.0
45864;BME280;31579;52.354;16.974;2023-04-04T01:14:20;43.1;;;-146.1;100.0
45864;BME280;31579;52.354;16.974;2023-04-04T01:15:22;38.8;;;-146.1;100.0
45864;BME280;31579;52.354;16.974;2023-04-04T01:16:25;37.7;;;-146.1;100.0
45864;BME280;31579;52.354;16.974;2023-04-04T01:17:28;34.1;;;-146.1;100.0
45864;BME280;31579;52.354;16.974;2023-04-04T01:18:31;30.2;;;-146.1;100.0
45864;BME280;31579;52.354;16.974;2023-04-04T01:19:36;30.7;;;-146.1;100.0
45864;BME280;31579;52.354;16.974;2023-04-04T01:20:39;30.1;;;-146.1;100.0
45864;BME280;31579;52.354;16.974;2023-04-04T01:21:40;30.1;;;-146.1;100.0
45864;BME280;31579;52.354;16.974;2023-04-04T01:22:43;34.4;;;-146.1;100.0
45864;BME280;31579;52.354;16.974;2023-04-04T01:24:49;37.9;;;-146.1;100.0
45864;BME280;31579;52.354;16.974;2023-04-04T01:26:55;43.3;;;-146.1;100.0
45864;BME280;31579;52.354;16.974;2023-04-04T01:27:59;47.7;;;-146.1;100.0
45864;BME280;31579;52.354;16.974;2023-04-04T01:29:01;47.2;;;-146.1;100.0
45864;BME280;31579;52.354;16.974;2023-04-04T01:30:06;48.9;;;-146.1;100.0
45864;BME280;31579;52.354;16.974;2023-04-04T01:31:09;53.9;;;-146.1;100.0
45864;BME280;31579;52.354;16.974;2023-04-04T01:32:12;55.6;;;-146.1;100.0
45864;BME280;31579;52.354;16.974;2023-04-04T01:33:18;57.6;;;-146.1;100.0
45864;BME280;31579;52.354;16.974;2023-04-04T01:36:28;62.5;;;-146.1;100.0
45864;BME280;31579;52.354;16.974;2023-04-04T01:39:38;74.8;;;-146.1;100.0
45864;BME280;31579;52.354;16.974;2023-04-04T01:40:37;76.3;;;-146.1;100.0
45864;BME280;31579;52.354;16.974;2023-04-04T01:41:40;81.0;;;-146.1;100.0
45864;BME280;31579;52.354;16.974;2023-04-04T01:42:57;85.7;;;-146.1;100.0
45864;BME280;31579;52.354;16.974;2023-04-04T01:43:59;83.1;;;-146.1;100.0
45864;BME280;31579;52.354;16.974;2023-04-04T01:45:04;80.9;;;-146.1;100.0
45864;BME280;31579;52.354;16.974;2023-04-04T01:46:07;80.7;;;-146.1;100.0
45864;BME280;31579;52.354;16.974;2023-04-04T01:47:11;79.4;;;-146.1;100.0
45864;BME280;31579;52.354;16.974;2023-04-04T01:48:13;80.3;;;-146.1;100.0
45864;BME280;31579;52.354;16.974;2023-04-04T01:49:16;82.0;;;-146.1;100.0
45864;BME280;31579;52.354;16.974;2023-04-04T01:50:19;88.4;;;-146.1;100.0
45864;BME280;31579;52.354;16.974;2023-04-04T01:51:22;92.6;;;-146.1;100.0
45864;BME280;31579;52.354;16.974;2023-04-04T01:52:26;105.2;;;-146.1;100.0
45864;BME280;31579;52.354;16.974;2023-04-04T01:53:29;93.1;;;-146.1;100.0
45864;BME280;31579;52.354;16.974;2023-04-04T01:54:31;94.8;;;-146.1;100.0
45864;BME280;31579;52.354;16.974;2023-04-04T01:55:35;94.6;;;-146.1;100.0
45864;BME280;31579;52.354;16.974;2023-04-04T01:56:38;93.7;;;-146.1;100.0
45864;BME280;31579;52.354;16.974;2023-04-04T01:57:42;108.0;;;-146.1;100.0
45864;BME280;31579;52.354;16.974;2023-04-04T01:58:45;103.3;;;-146.1;100.0
45864;BME280;31579;52.354;16.974;2023-04-04T01:59:48;105.0;;;-146.1;100.0
45864;BME280;31579;52.354;16.974;2023-04-04T02:00:52;104.1;;;-146.1;100.0
45864;BME280;31579;52.354;16.974;2023-04-04T02:01:55;102.4;;;-146.1;100.0
45864;BME280;31579;52.354;16.974;2023-04-04T02:02:58;102.1;;;-146.1;100.0
45864;BME280;31579;52.354;16.974;2023-04-04T02:04:02;107.9;;;-146.1;100.0
45864;BME280;31579;52.354;16.974;2023-04-04T02:05:05;92.4;;;-146.1;100.0
45864;BME280;31579;52.354;16.974;2023-04-04T02:06:09;88.3;;;-146.1;100.0
45864;BME280;31579;52.354;16.974;2023-04-04T02:07:12;86.3;;;-146.1;100.0
45864;BME280;31579;52.354;16.974;2023-04-04T02:08:15;88.0;;;-146.1;100.0
45864;BME280;31579;52.354;16.974;2023-04-04T02:09:19;98.7;;;-146.1;100.0
45864;BME280;31579;52.354;16.974;2023-04-04T02:10:22;85.7;;;-146.1;100.0
45864;BME280;31579;52.354;16.974;2023-04-04T02:11:25;85.0;;;-146.1;100.0
45864;BME280;31579;52.354;16.974;2023-04-04T02:12:28;84.2;;;-146.1;100.0
45864;BME280;31579;52.354;16.974;2023-04-04T02:13:31;84.7;;;-146.1;100.0
45864;BME280;31579;52.354;16.974;2023-04-04T02:14:35;100.3;;;-146.1;100.0
45864;BME280;31579;52.354;16.974;2023-04-04T02:15:38;95.0;;;-146.1;100.0
45864;BME280;31579;52.354;16.974;2023-04-04T02:16:42;120.6;;;-146.1;100.0
45864;BME280;31579;52.354;16.974;2023-04-04T02:17:46;115.5;;;-146.1;100.0
45864;BME280;31579;52.354;16.974;2023-04-04T02:18:48;116.8;;;-146.1;100.0
45864;BME280;31579;52.354;16.974;2023-04-04T02:19:51;120.2;;;-146.1;100.0
45864;BME280;31579;52.354;16.974;2023-04-04T02:20:54;130.1;;;-146.1;100.0
45864;BME280;31579;52.354;16.974;2023-04-04T02:21:57;140.6;;;-146.1;100.0
45864;BME280;31579;52.354;16.974;2023-04-04T02:23:00;148.4;;;-146.1;100.0
45864;BME280;31579;52.354;16.974;2023-04-04T02:24:03;152.4;;;-146.1;100.0
45864;BME280;31579;52.354;16.974;2023-04-04T02:25:06;161.7;;;-146.1;100.0
45864;BME280;31579;52.354;16.974;2023-04-04T02:26:09;180.5;;;-146.1;100.0
45864;BME280;31579;52.354;16.974;2023-04-04T02:27:12;205.7;;;-146.1;100.0
45864;BME280;31579;52.354;16.974;2023-04-04T02:28:15;231.7;;;-146.1;100.0
45864;BME280;31579;52.354;16.974;2023-04-04T02:29:18;269.0;;;-146.1;100.0
45864;BME280;31579;52.354;16.974;2023-04-04T02:30:22;338.6;;;-146.1;100.0
45864;BME280;31579;52.354;16.974;2023-04-04T02:31:25;336.0;;;-146.1;100.0
45864;BME280;31579;52.354;16.974;2023-04-04T02:32:28;342.1;;;-146.1;100.0
45864;BME280;31579;52.354;16.974;2023-04-04T02:33:31;340.6;;;-146.1;100.0
45864;BME280;31579;52.354;16.974;2023-04-04T02:34:42;398.2;;;-146.1;100.0
45864;BME280;31579;52.354;16.974;2023-04-04T02:35:45;344.1;;;-146.1;100.0
45864;BME280;31579;52.354;16.974;2023-04-04T02:36:48;345.3;;;-146.1;100.0
45864;BME280;31579;52.354;16.974;2023-04-04T02:37:51;336.5;;;-146.1;100.0
45864;BME280;31579;52.354;16.974;2023-04-04T02:38:54;329.3;;;-146.1;100.0
45864;BME280;31579;52.354;16.974;2023-04-04T02:39:57;351.4;;;-146.1;100.0
45864;BME280;31579;52.354;16.974;2023-04-04T02:41:00;390.0;;;-146.1;100.0
45864;BME280;31579;52.354;16.974;2023-04-04T02:42:03;414.9;;;-146.1;100.0
45864;BME280;31579;52.354;16.974;2023-04-04T02:43:06;428.0;;;-146.1;100.0
45864;BME280;31579;52.354;16.974;2023-04-04T02:44:10;469.0;;;-146.1;100.0
45864;BME280;31579;52.354;16.974;2023-04-04T02:45:13;442.0;;;-146.1;100.0
45864;BME280;31579;52.354;16.974;2023-04-04T02:46:16;437.5;;;-146.1;100.0
45864;BME280;31579;52.354;16.974;2023-04-04T02:47:19;430.5;;;-146.1;100.0
45864;BME280;31579;52.354;16.974;2023-04-04T02:48:22;421.9;;;-146.1;100.0
45864;BME280;31579;52.354;16.974;2023-04-04T02:49:25;419.7;;;-146.1;100.0
45864;BME280;31579;52.354;16.974;2023-04-04T02:50:28;427.7;;;-146.1;100.0
45864;BME280;31579;52.354;16.974;2023-04-04T02:51:31;425.3;;;-146.1;100.0
45864;BME280;31579;52.354;16.974;2023-04-04T02:52:34;430.1;;;-146.1;100.0
45864;BME280;31579;52.354;16.974;2023-04-04T02:53:36;393.9;;;-146.1;100.0
45864;BME280;31579;52.354;16.974;2023-04-04T02:54:39;430.0;;;-146.1;100.0
45864;BME280;31579;52.354;16.974;2023-04-04T02:55:43;467.6;;;-146.1;100.0
45864;BME280;31579;52.354;16.974;2023-04-04T02:56:46;437.2;;;-146.1;100.0
45864;BME280;31579;52.354;16.974;2023-04-04T02:57:50;469.3;;;-146.1;100.0
45864;BME280;31579;52.354;16.974;2023-04-04T02:58:54;472.3;;;-146.1;100.0
45864;BME280;31579;52.354;16.974;2023-04-04T02:59:57;456.8;;;-146.1;100.0
45864;BME280;31579;52.354;16.974;2023-04-04T03:01:00;463.1;;;-146.1;100.0
45864;BME280;31579;52.354;16.974;2023-04-04T03:02:03;460.6;;;-146.1;100.0
45864;BME280;31579;52.354;16.974;2023-04-04T03:03:06;460.9;;;-146.1;100.0
45864;BME280;31579;52.354;16.974;2023-04-04T03:04:09;462.0;;;-146.1;100.0
45864;BME280;31579;52.354;16.974;2023-04-04T03:05:12;470.1;;;-146.1;100.0
45864;BME280;31579;52.354;16.974;2023-04-04T03:06:16;498.9;;;-146.1;100.0
45864;BME280;31579;52.354;16.974;2023-04-04T03:07:19;482.2;;;-146.1;100.0
45864;BME280;31579;52.354;16.974;2023-04-04T03:08:22;499.0;;;-146.1;100.0
45864;BME280;31579;52.354;16.974;2023-04-04T03:09:25;514.4;;;-146.1;100.0
45864;BME280;31579;52.354;16.974;2023-04-04T03:10:28;526.5;;;-146.1;100.0
45864;BME280;31579;52.354;16.974;2023-04-04T03:11:31;534.9;;;-146.1;100.0
45864;BME280;31579;52.354;16.974;2023-04-04T03:12:34;538.0;;;-146.1;100.0
45864;BME280;31579;52.354;16.974;2023-04-04T03:13:36;501.9;;;-146.1;100.0
45864;BME280;31579;52.354;16.974;2023-04-04T03:14:39;535.8;;;-146.1;100.0
45864;BME280;31579;52.354;16.974;2023-04-04T03:15:42;537.1;;;-146.1;100.0
45864;BME280;31579;52.354;16.974;2023-04-04T03:16:45;535.0;;;-146.1;100.0
45864;BME280;31579;52.354;16.974;2023-04-04T03:17:48;528.4;;;-146.1;100.0
45864;BME280;31579;52.354;16.974;2023-04-04T03:18:51;525.7;;;-146.1;100.0
45864;BME280;31579;52.354;16.974;2023-04-04T03:19:54;524.8;;;-146.1;100.0
45864;BME280;31579;52.354;16.974;2023-04-04T03:20:57;520.6;;;-146.1;100.0
45864;BME280;31579;52.354;16.974;2023-04-04T03:22:00;512.0;;;-146.1;100.0
45864;BME280;31579;52.354;16.974;2023-04-04T03:23:03;502.5;;;-146.1;100.0
45864;BME280;31579;52.354;16.974;2023-04-04T03:24:06;506.3;;;-146.1;100.0
45864;BME280;31579;52.354;16.974;2023-04-04T03:25:09;508.7;;;-146.1;100.0
45864;BME280;31579;52.354;16.974;2023-04-04T03:26:12;507.0;;;-146.1;100.0
45864;BME280;31579;52.354;16.974;2023-04-04T03:27:15;505.9;;;-146.1;100.0
45864;BME280;31579;52.354;16.974;2023-04-04T03:28:18;497.9;;;-146.1;100.0
45864;BME280;31579;52.354;16.974;2023-04-04T03:29:22;512.5;;;-146.1;100.0
45864;BME280;31579;52.354;16.974;2023-04-04T03:30:25;490.4;;;-146.1;100.0
45864;BME280;31579;52.354;16.974;2023-04-04T03:31:28;494.6;;;-146.1;100.0
45864;BME280;31579;52.354;16.974;2023-04-04T03:32:31;501.7;;;-146.1;100.0
45864;BME280;31579;52.354;16.974;2023-04-04T03:33:35;509.8;;;-146.1;100.0
45864;BME280;31579;52.354;16.974;2023-04-04T03:34:37;485.6;;;-146.1;100.0
45864;BME280;31579;52.354;16.974;2023-04-04T03:35:40;526.0;;;-146.1;100.0
45864;BME280;31579;52.354;16.974;2023-04-04T03:36:43;525.6;;;-146.1;100.0
45864;BME280;31579;52.354;16.974;2023-04-04T03:37:46;525.1;;;-146.1;100.0
45864;BME280;31579;52.354;16.974;2023-04-04T03:38:49;526.3;;;-146.1;100.0
45864;BME280;31579;52.354;16.974;2023-04-04T03:39:52;529.7;;;-146.1;100.0
45864;BME280;31579;52.354;16.974;2023-04-04T03:42:00;562.3;;;-146.1;100.0
45864;BME280;31579;52.354;16.974;2023-04-04T03:43:05;552.4;;;-146.1;100.0
45864;BME280;31579;52.354;16.974;2023-04-04T03:44:06;565.3;;;-146.1;100.0
45864;BME280;31579;52.354;16.974;2023-04-04T03:45:09;572.7;;;-146.1;100.0
45864;BME280;31579;52.354;16.974;2023-04-04T03:46:12;576.9;;;-146.1;100.0
45864;BME280;31579;52.354;16.974;2023-04-04T03:47:15;579.6;;;-146.1;100.0
45864;BME280;31579;52.354;16.974;2023-04-04T03:48:19;596.1;;;-146.1;100.0
45864;BME280;31579;52.354;16.974;2023-04-04T03:49:36;572.5;;;-146.1;100.0
45864;BME280;31579;52.354;16.974;2023-04-04T03:50:39;579.2;;;-146.1;100.0
45864;BME280;31579;52.354;16.974;2023-04-04T03:51:42;580.6;;;-146.1;100.0
45864;BME280;31579;52.354;16.974;2023-04-04T03:52:45;583.0;;;-146.1;100.0
45864;BME280;31579;52.354;16.974;2023-04-04T03:53:48;583.0;;;-146.1;100.0
45864;BME280;31579;52.354;16.974;2023-04-04T03:54:51;581.1;;;-146.1;100.0
45864;BME280;31579;52.354;16.974;2023-04-04T03:55:54;580.1;;;-146.1;100.0
45864;BME280;31579;52.354;16.974;2023-04-04T03:56:57;578.0;;;-146.1;100.0
45864;BME280;31579;52.354;16.974;2023-04-04T03:58:07;586.2;;;-146.1;100.0
45864;BME280;31579;52.354;16.974;2023-04-04T03:59:11;591.0;;;-146.1;100.0
45864;BME280;31579;52.354;16.974;2023-04-04T04:00:14;575.5;;;-146.1;100.0
45864;BME280;31579;52.354;16.974;2023-04-04T04:01:17;575.6;;;-146.1;100.0
45864;BME280;31579;52.354;16.974;2023-04-04T04:02:20;577.0;;;-146.1;100.0
45864;BME280;31579;52.354;16.974;2023-04-04T04:03:24;591.1;;;-146.1;100.0
45864;BME280;31579;52.354;16.974;2023-04-04T04:04:28;590.0;;;-146.1;100.0
45864;BME280;31579;52.354;16.974;2023-04-04T04:05:31;572.5;;;-146.1;100.0
45864;BME280;31579;52.354;16.974;2023-04-04T04:06:34;569.6;;;-146.1;100.0
45864;BME280;31579;52.354;16.974;2023-04-04T04:07:37;566.2;;;-146.1;100.0
45864;BME280;31579;52.354;16.974;2023-04-04T04:08:40;561.5;;;-146.1;100.0
45864;BME280;31579;52.354;16.974;2023-04-04T04:09:43;548.1;;;-146.1;100.0
45864;BME280;31579;52.354;16.974;2023-04-04T04:10:46;538.5;;;-146.1;100.0
45864;BME280;31579;52.354;16.974;2023-04-04T04:11:49;523.1;;;-146.1;100.0
45864;BME280;31579;52.354;16.974;2023-04-04T04:12:52;500.9;;;-146.1;100.0
45864;BME280;31579;52.354;16.974;2023-04-04T04:13:55;481.6;;;-146.1;100.0
45864;BME280;31579;52.354;16.974;2023-04-04T04:14:58;461.2;;;-146.1;100.0
45864;BME280;31579;52.354;16.974;2023-04-04T04:16:00;399.5;;;-146.1;100.0
45864;BME280;31579;52.354;16.974;2023-04-04T04:17:03;374.5;;;-146.1;100.0
45864;BME280;31579;52.354;16.974;2023-04-04T04:18:05;340.0;;;-146.1;100.0
45864;BME280;31579;52.354;16.974;2023-04-04T04:19:08;376.1;;;-146.1;100.0
45864;BME280;31579;52.354;16.974;2023-04-04T04:20:11;350.7;;;-146.1;100.0
45864;BME280;31579;52.354;16.974;2023-04-04T04:21:19;347.9;;;-146.1;100.0
45864;BME280;31579;52.354;16.974;2023-04-04T04:22:22;301.8;;;-146.1;100.0
45864;BME280;31579;52.354;16.974;2023-04-04T04:23:25;277.5;;;-146.1;100.0
45864;BME280;31579;52.354;16.974;2023-04-04T04:24:28;253.6;;;-146.1;100.0
45864;BME280;31579;52.354;16.974;2023-04-04T04:25:31;234.6;;;-146.1;100.0
45864;BME280;31579;52.354;16.974;2023-04-04T04:26:34;213.0;;;-146.1;100.0
45864;BME280;31579;52.354;16.974;2023-04-04T04:27:37;195.5;;;-146.1;100.0
45864;BME280;31579;52.354;16.974;2023-04-04T04:28:40;180.2;;;-146.1;100.0
45864;BME280;31579;52.354;16.974;2023-04-04T04:29:43;162.7;;;-146.1;100.0
45864;BME280;31579;52.354;16.974;2023-04-04T04:30:47;147.7;;;-146.1;100.0
45864;BME280;31579;52.354;16.974;2023-04-04T04:31:49;133.7;;;-146.1;100.0
45864;BME280;31579;52.354;16.974;2023-04-04T04:32:52;128.7;;;-146.1;100.0
45864;BME280;31579;52.354;16.974;2023-04-04T04:33:55;116.8;;;-146.1;100.0
45864;BME280;31579;52.354;16.974;2023-04-04T04:34:58;103.6;;;-146.1;100.0
45864;BME280;31579;52.354;16.974;2023-04-04T04:36:02;74.1;;;-146.1;100.0
45864;BME280;31579;52.354;16.974;2023-04-04T04:37:04;78.4;;;-146.1;100.0
45864;BME280;31579;52.354;16.974;2023-04-04T04:38:07;69.2;;;-146.1;100.0
45864;BME280;31579;52.354;16.974;2023-04-04T04:39:10;60.5;;;-146.1;100.0
45864;BME280;31579;52.354;16.974;2023-04-04T04:40:13;49.3;;;-146.1;100.0
45864;BME280;31579;52.354;16.974;2023-04-04T04:41:16;39.5;;;-146.1;100.0
45864;BME280;31579;52.354;16.974;2023-04-04T04:42:19;29.2;;;-146.1;100.0
45864;BME280;31579;52.354;16.974;2023-04-04T04:43:23;20.8;;;-146.1;100.0
45864;BME280;31579;52.354;16.974;2023-04-04T04:44:25;14.8;;;-146.1;100.0
45864;BME280;31579;52.354;16.974;2023-04-04T04:45:28;10.3;;;-146.1;100.0
45864;BME280;31579;52.354;16.974;2023-04-04T04:46:31;8.1;;;-146.1;100.0
45864;BME280;31579;52.354;16.974;2023-04-04T04:47:35;3.8;;;-146.1;100.0
45864;BME280;31579;52.354;16.974;2023-04-04T04:48:37;-0.4;;;-146.1;100.0
45864;BME280;31579;52.354;16.974;2023-04-04T04:49:40;-4.4;;;-146.1;100.0
45864;BME280;31579;52.354;16.974;2023-04-04T04:50:44;-8.7;;;-146.1;100.0
45864;BME280;31579;52.354;16.974;2023-04-04T04:51:46;-12.8;;;-146.1;100.0
45864;BME280;31579;52.354;16.974;2023-04-04T04:52:49;-17.7;;;-146.1;100.0
45864;BME280;31579;52.354;16.974;2023-04-04T04:53:52;-23.0;;;-146.1;100.0
45864;BME280;31579;52.354;16.974;2023-04-04T04:54:56;-26.7;;;-146.1;100.0
45864;BME280;31579;52.354;16.974;2023-04-04T04:55:58;-30.1;;;-146.1;100.0
45864;BME280;31579;52.354;16.974;2023-04-04T04:57:18;-35.1;;;-146.1;100.0
45864;BME280;31579;52.354;16.974;2023-04-04T04:58:21;-37.1;;;-146.1;100.0
45864;BME280;31579;52.354;16.974;2023-04-04T04:59:24;-40.2;;;-146.1;100.0
45864;BME280;31579;52.354;16.974;2023-04-04T05:00:27;-43.0;;;-146.1;100.0
45864;BME280;31579;52.354;16.974;2023-04-04T05:01:30;-46.5;;;-146.1;100.0
45864;BME280;31579;52.354;16.974;2023-04-04T05:02:33;-51.3;;;-146.1;100.0
45864;BME280;31579;52.354;16.974;2023-04-04T05:03:36;-53.2;;;-146.1;100.0
45864;BME280;31579;52.354;16.974;2023-04-04T05:04:39;-54.1;;;-146.1;100.0
45864;BME280;31579;52.354;16.974;2023-04-04T05:05:42;-54.2;;;-146.1;100.0
45864;BME280;31579;52.354;16.974;2023-04-04T05:06:46;-56.5;;;-146.1;100.0
45864;BME280;31579;52.354;16.974;2023-04-04T05:08:03;-55.2;;;-146.1;100.0
45864;BME280;31579;52.354;16.974;2023-04-04T05:09:07;-51.2;;;-146.1;100.0
45864;BME280;31579;52.354;16.974;2023-04-04T05:10:11;-53.1;;;-146.1;100.0
45864;BME280;31579;52.354;16.974;2023-04-04T05:11:15;-54.1;;;-146.1;100.0
45864;BME280;31579;52.354;16.974;2023-04-04T05:12:18;-58.7;;;-146.1;100.0
45864;BME280;31579;52.354;16.974;2023-04-04T05:13:21;-58.5;;;-146.1;100.0
45864;BME280;31579;52.354;16.974;2023-04-04T05:14:24;-61.0;;;-146.1;100.0
45864;BME280;31579;52.354;16.974;2023-04-04T05:15:27;-63.0;;;-146.1;100.0
45864;BME280;31579;52.354;16.974;2023-04-04T05:16:30;-63.9;;;-146.1;100.0
45864;BME280;31579;52.354;16.974;2023-04-04T05:17:34;-66.4;;;-146.1;100.0
45864;BME280;31579;52.354;16.974;2023-04-04T05:18:36;-68.1;;;-146.1;100.0
45864;BME280;31579;52.354;16.974;2023-04-04T05:19:40;-64.9;;;-146.1;100.0
45864;BME280;31579;52.354;16.974;2023-04-04T05:20:43;-70.0;;;-146.1;100.0
45864;BME280;31579;52.354;16.974;2023-04-04T05:22:00;-66.9;;;-146.1;100.0
45864;BME280;31579;52.354;16.974;2023-04-04T05:23:11;-62.7;;;-146.1;100.0
45864;BME280;31579;52.354;16.974;2023-04-04T05:24:15;-66.7;;;-146.1;100.0
45864;BME280;31579;52.354;16.974;2023-04-04T05:25:19;-66.6;;;-146.1;100.0
45864;BME280;31579;52.354;16.974;2023-04-04T05:26:23;-67.9;;;-146.1;100.0
45864;BME280;31579;52.354;16.974;2023-04-04T05:27:27;-69.2;;;-146.1;100.0
45864;BME280;31579;52.354;16.974;2023-04-04T05:28:31;-69.4;;;-146.1;100.0
45864;BME280;31579;52.354;16.974;2023-04-04T05:29:34;-73.4;;;-146.1;100.0
45864;BME280;31579;52.354;16.974;2023-04-04T05:30:38;-67.6;;;-146.1;100.0
45864;BME280;31579;52.354;16.974;2023-04-04T05:31:41;-69.2;;;-146.1;100.0
45864;BME280;31579;52.354;16.974;2023-04-04T05:32:45;-66.6;;;-146.1;100.0
45864;BME280;31579;52.354;16.974;2023-04-04T05:33:49;-67.1;;;-146.1;100.0
45864;BME280;31579;52.354;16.974;2023-04-04T05:34:52;-71.4;;;-146.1;100.0
45864;BME280;31579;52.354;16.974;2023-04-04T05:35:55;-73.2;;;-146.1;100.0
45864;BME280;31579;52.354;16.974;2023-04-04T05:36:59;-71.9;;;-146.1;100.0
45864;BME280;31579;52.354;16.974;2023-04-04T05:38:01;-80.5;;;-146.1;100.0
45864;BME280;31579;52.354;16.974;2023-04-04T05:39:06;-77.3;;;-146.1;100.0
45864;BME280;31579;52.354;16.974;2023-04-04T05:40:09;-78.9;;;-146.1;100.0
45864;BME280;31579;52.354;16.974;2023-04-04T05:41:13;-73.7;;;-146.1;100.0
45864;BME280;31579;52.354;16.974;2023-04-04T05:42:17;-73.9;;;-146.1;100.0
45864;BME280;31579;52.354;16.974;2023-04-04T05:43:20;-74.5;;;-146.1;100.0
45864;BME280;31579;52.354;16.974;2023-04-04T05:44:23;-75.5;;;-146.1;100.0
45864;BME280;31579;52.354;16.974;2023-04-04T05:45:26;-77.3;;;-146.1;100.0
45864;BME280;31579;52.354;16.974;2023-04-04T05:46:30;-75.7;;;-146.1;100.0
45864;BME280;31579;52.354;16.974;2023-04-04T05:47:34;-77.0;;;-146.1;100.0
45864;BME280;31579;52.354;16.974;2023-04-04T05:48:37;-78.5;;;-146.1;100.0
45864;BME280;31579;52.354;16.974;2023-04-04T05:49:40;-78.2;;;-146.1;100.0